Airfield :
LOGIN :

Register | Disclaimer

   EN    FR    IT 

 










Legend :    VFR   Marginal VFR   IFR   Intensive IFR   Very Intensive IFR
Visi :
Ceiling :
>= 8 km
>= 3000ft
5 to 8 km
1000 to 3000 ft
1500m to 5 km
500 to 1000 ft
800 to 1500m
200 to 500 ft
< 800m
< 200 ft
Symbols :   Thunderstorms  Fog  Heavy snow  Heavy precipitations  Wind > 20 kt
SIGMETs :     Misc.  Thunderstorms  Icing  Turbulence  Mountain Waves  Volcanic Ashes







- Airport Elevation : 1079 ft


ETIK - Illesheim Air Base

CURRENT METAR :
  • 241658Z AUTO 10004KT 9999 CLR 09/04 A3033 RMK AO2 SLP279 T00880043

EXPIRED METARs :
  • 241558Z VRB04KT 9999 FEW025 BKN200 10/05 A3033 RMK AO2A SLP279 T01000048
  • 241458Z 09007KT 060V120 9999 SCT025 BKN200 10/05 A3033 RMK AO2A SLP279 T00980048 50000

TAF TAF ETIK
Valid from the 24 at 13:00 until the 25 at 19:00 UTC


241304Z 2413/2519 08009KT 9999 BKN020 QNH3020INS
BECMG 2502/2503 VRB06KT 9999 BKN010 QNH3018INS
BECMG 2517/2518 07009KT 9999 SCT025 QNH3017INS TX13/2512Z TN02/2506Z
No reported NOTAMs for that airfield.



MET'MAP, your aeronautical weather chart ! - Copyright ORBIFLY December 2007 - Disclaimer

ORBIFLY MET'MAP TEAM :

Programming & Development : Alexandra Zaïnal
Concept & Development : Baudouin d'Aumeries
Co-Development & Prog : Marc-Olivier Méhu
Technical & hardware support : Manuel Goepfert

Contact : metmap@orbifly.com




SOURCES & CREDITS :

   NOAA